Time;durP1;ratioP1;P1;durP2;ratioP2;P2;SDS_P1;SDS_P2;PMS_P1;PMS_P2;Temp;Humidity;BMP_temperature;BMP_pressure;BME280_temperature;BME280_humidity;BME280_pressure;Samples;Min_cycle;Max_cycle;Signal;HPM_P1;HPM_P2
2022/09/06 00:00:52;;;;;;;16.13;4.40;;;;;;;;;;5096003;28;20050;-90
2022/09/06 00:03:18;;;;;;;9.65;3.75;;;;;;;;;;5081045;28;20020;-91
2022/09/06 00:05:44;;;;;;;12.38;4.35;;;;;;;;;;5078038;28;20024;-90
2022/09/06 00:08:11;;;;;;;11.95;4.20;;;;;;;;;;5078132;28;20023;-90
2022/09/06 00:10:37;;;;;;;13.40;4.05;;;;;;;;;;5076312;28;20032;-90
2022/09/06 00:13:04;;;;;;;17.20;4.32;;;;;;;;;;5073447;28;20113;-90
2022/09/06 00:15:30;;;;;;;12.20;4.15;;;;;;;;;;5082912;28;20070;-90
2022/09/06 00:18:04;;;;;;;19.23;3.88;;;;;;;;;;5077755;28;20069;-90
2022/09/06 00:20:33;;;;;;;12.93;3.42;;;;;;;;;;5077607;28;20054;-90
2022/09/06 00:23:03;;;;;;;7.65;3.30;;;;;;;;;;5077668;28;20054;-90
2022/09/06 00:25:32;;;;;;;14.35;3.90;;;;;;;;;;5077495;28;20024;-90
2022/09/06 00:27:59;;;;;;;12.95;3.65;;;;;;;;;;5072340;28;20031;-90
2022/09/06 00:30:26;;;;;;;8.07;3.85;;;;;;;;;;5080991;28;20166;-90
2022/09/06 00:32:53;;;;;;;7.95;3.33;;;;;;;;;;5077595;28;20024;-90
2022/09/06 00:35:27;;;;;;;13.23;4.15;;;;;;;;;;5081947;28;20484;-90
2022/09/06 00:38:02;;;;;;;10.48;4.15;;;;;;;;;;5093128;28;20019;-90
2022/09/06 00:40:37;;;;;;;18.55;4.00;;;;;;;;;;5076944;28;20028;-90
2022/09/06 00:43:03;;;;;;;14.63;4.68;;;;;;;;;;5078192;28;20027;-91
2022/09/06 00:45:32;;;;;;;9.98;3.88;;;;;;;;;;5078705;28;20049;-91
2022/09/06 00:48:00;;;;;;;8.20;3.58;;;;;;;;;;5057282;28;20032;-91
2022/09/06 00:50:26;;;;;;;11.70;4.10;;;;;;;;;;5057709;28;20016;-90
2022/09/06 00:52:53;;;;;;;16.35;4.28;;;;;;;;;;5087653;28;20020;-91
2022/09/06 00:55:20;;;;;;;13.07;4.38;;;;;;;;;;5066714;28;20044;-90
2022/09/06 00:57:49;;;;;;;10.52;3.63;;;;;;;;;;5064169;28;20028;-90
2022/09/06 01:00:16;;;;;;;16.77;4.10;;;;;;;;;;5063065;28;20027;-90
2022/09/06 01:02:42;;;;;;;11.13;3.78;;;;;;;;;;5069107;28;20060;-90
2022/09/06 01:05:09;;;;;;;10.32;3.72;;;;;;;;;;5068210;28;20048;-90
2022/09/06 01:07:51;;;;;;;13.65;4.25;;;;;;;;;;5067228;28;20051;-90
2022/09/06 01:10:34;;;;;;;13.15;4.05;;;;;;;;;;5060628;28;20490;-91
2022/09/06 01:13:18;;;;;;;10.48;4.10;;;;;;;;;;5079438;28;20501;-91
2022/09/06 01:15:55;;;;;;;11.18;4.20;;;;;;;;;;5065138;28;20486;-91
2022/09/06 01:18:30;;;;;;;13.68;3.42;;;;;;;;;;5062436;28;20016;-91
2022/09/06 01:20:56;;;;;;;13.95;4.10;;;;;;;;;;5066676;28;20020;-91
2022/09/06 01:23:32;;;;;;;12.55;4.28;;;;;;;;;;5065262;28;20028;-91
2022/09/06 01:26:13;;;;;;;9.77;3.70;;;;;;;;;;5069022;28;20024;-91
2022/09/06 01:28:41;;;;;;;10.00;4.05;;;;;;;;;;5060147;28;20039;-90
2022/09/06 01:31:10;;;;;;;13.98;4.47;;;;;;;;;;5067949;28;20020;-90
2022/09/06 01:33:46;;;;;;;12.02;3.90;;;;;;;;;;5065636;28;20546;-91
2022/09/06 01:36:14;;;;;;;12.73;3.63;;;;;;;;;;5069939;28;20034;-90
2022/09/06 01:38:40;;;;;;;15.13;4.43;;;;;;;;;;5092815;28;20020;-90
2022/09/06 01:41:06;;;;;;;14.27;4.40;;;;;;;;;;5061205;28;20482;-90
2022/09/06 01:43:35;;;;;;;9.73;3.55;;;;;;;;;;5061249;28;20024;-90
2022/09/06 01:46:16;;;;;;;9.95;3.83;;;;;;;;;;5081625;28;20040;-89
2022/09/06 01:48:45;;;;;;;9.32;4.63;;;;;;;;;;5093870;28;20042;-90
2022/09/06 01:51:16;;;;;;;11.48;4.05;;;;;;;;;;5099251;28;20040;-90
2022/09/06 01:53:45;;;;;;;11.07;4.22;;;;;;;;;;5081181;28;20024;-90
2022/09/06 01:56:27;;;;;;;11.05;4.55;;;;;;;;;;5088579;28;20115;-90
2022/09/06 01:58:56;;;;;;;13.90;4.47;;;;;;;;;;5103293;28;20030;-90
2022/09/06 02:01:29;;;;;;;17.27;4.25;;;;;;;;;;5092568;28;20020;-90
2022/09/06 02:04:14;;;;;;;9.73;4.50;;;;;;;;;;5088738;28;20043;-90
2022/09/06 02:06:42;;;;;;;15.35;4.95;;;;;;;;;;5084251;28;20111;-90
2022/09/06 02:09:10;;;;;;;15.38;4.30;;;;;;;;;;5084225;28;20377;-90
2022/09/06 02:11:41;;;;;;;15.80;4.57;;;;;;;;;;5098957;28;20011;-90
2022/09/06 02:14:34;;;;;;;12.68;3.97;;;;;;;;;;5104873;28;20077;-91
2022/09/06 02:17:03;;;;;;;12.40;4.20;;;;;;;;;;5060945;28;20509;-91
2022/09/06 02:19:36;;;;;;;8.70;3.92;;;;;;;;;;5076118;28;20030;-91
2022/09/06 02:22:05;;;;;;;12.52;4.45;;;;;;;;;;5096343;28;20023;-91
2022/09/06 02:24:33;;;;;;;12.88;4.70;;;;;;;;;;5080490;28;20081;-91
2022/09/06 02:26:59;;;;;;;12.05;4.40;;;;;;;;;;5086792;28;20027;-91
2022/09/06 02:29:26;;;;;;;13.63;4.38;;;;;;;;;;5096587;28;20058;-90
2022/09/06 02:31:56;;;;;;;11.55;4.32;;;;;;;;;;5095437;28;20023;-91
2022/09/06 02:34:25;;;;;;;13.68;3.90;;;;;;;;;;5095749;28;20063;-90
2022/09/06 02:36:53;;;;;;;17.05;4.20;;;;;;;;;;5087379;28;20058;-90
2022/09/06 02:39:20;;;;;;;9.18;3.83;;;;;;;;;;5086763;28;20051;-90
2022/09/06 02:41:47;;;;;;;9.85;3.55;;;;;;;;;;5110212;28;20537;-90
2022/09/06 02:44:13;;;;;;;10.02;3.00;;;;;;;;;;5119009;28;20031;-90
2022/09/06 02:46:39;;;;;;;8.23;2.97;;;;;;;;;;5079565;28;20095;-91
2022/09/06 02:49:06;;;;;;;6.75;2.70;;;;;;;;;;5085244;28;20457;-90
2022/09/06 02:51:37;;;;;;;10.75;3.10;;;;;;;;;;5080216;28;20027;-90
2022/09/06 02:54:03;;;;;;;10.40;3.80;;;;;;;;;;5075813;28;20031;-91
2022/09/06 02:56:31;;;;;;;11.38;3.60;;;;;;;;;;5076081;28;20099;-91
2022/09/06 02:59:00;;;;;;;9.75;3.50;;;;;;;;;;5091166;28;20024;-90
2022/09/06 03:01:26;;;;;;;9.77;3.95;;;;;;;;;;5082147;28;20466;-91
2022/09/06 03:03:52;;;;;;;9.45;3.58;;;;;;;;;;5081833;28;20028;-90
2022/09/06 03:06:18;;;;;;;9.57;3.72;;;;;;;;;;5094033;28;20055;-90
2022/09/06 03:08:45;;;;;;;10.00;3.38;;;;;;;;;;5080064;28;20466;-89
2022/09/06 03:11:11;;;;;;;9.82;3.60;;;;;;;;;;5091518;28;20094;-90
2022/09/06 03:13:37;;;;;;;12.85;3.85;;;;;;;;;;5091055;28;20024;-90
2022/09/06 03:16:07;;;;;;;8.40;2.85;;;;;;;;;;5104729;28;20034;-90
2022/09/06 03:18:36;;;;;;;6.78;2.70;;;;;;;;;;5094733;28;20047;-91
2022/09/06 03:21:02;;;;;;;6.72;2.40;;;;;;;;;;5093608;28;20023;-90
2022/09/06 03:23:28;;;;;;;5.15;2.22;;;;;;;;;;5104634;28;20110;-90
2022/09/06 03:25:55;;;;;;;6.47;2.20;;;;;;;;;;5095452;28;20027;-90
2022/09/06 03:28:24;;;;;;;6.75;2.33;;;;;;;;;;5090747;28;20076;-90
2022/09/06 03:30:51;;;;;;;7.85;2.78;;;;;;;;;;5104517;28;20161;-90
2022/09/06 03:33:17;;;;;;;9.88;2.45;;;;;;;;;;5091284;28;20027;-90
2022/09/06 03:35:47;;;;;;;8.15;2.90;;;;;;;;;;5098658;28;20026;-90
2022/09/06 03:38:15;;;;;;;8.45;3.10;;;;;;;;;;5096160;28;20027;-90
2022/09/06 03:40:44;;;;;;;10.25;2.67;;;;;;;;;;5090973;28;20047;-90
2022/09/06 03:43:13;;;;;;;7.53;2.38;;;;;;;;;;5098834;28;20541;-90
2022/09/06 03:45:39;;;;;;;9.80;3.15;;;;;;;;;;5098801;28;20090;-90
2022/09/06 03:48:06;;;;;;;5.10;2.53;;;;;;;;;;5099105;28;20045;-90
2022/09/06 03:50:32;;;;;;;6.40;2.85;;;;;;;;;;5107583;28;20028;-90
2022/09/06 03:53:03;;;;;;;12.23;3.58;;;;;;;;;;5125423;27;20031;-90
2022/09/06 03:55:29;;;;;;;7.43;3.22;;;;;;;;;;5080587;28;20504;-90
2022/09/06 03:57:56;;;;;;;9.90;3.45;;;;;;;;;;5080309;28;20103;-89
2022/09/06 04:00:24;;;;;;;9.25;3.22;;;;;;;;;;5108155;28;20028;-90
2022/09/06 04:02:50;;;;;;;14.05;3.50;;;;;;;;;;5089299;28;20488;-90
2022/09/06 04:05:17;;;;;;;11.07;3.70;;;;;;;;;;5113757;28;20028;-91
2022/09/06 04:07:45;;;;;;;12.32;4.32;;;;;;;;;;5098802;28;20038;-90
2022/09/06 04:10:12;;;;;;;9.00;4.47;;;;;;;;;;5098263;28;20023;-89
2022/09/06 04:12:38;;;;;;;16.08;4.78;;;;;;;;;;5083849;28;20028;-90
2022/09/06 04:15:04;;;;;;;13.52;3.78;;;;;;;;;;5115159;27;20047;-91
2022/09/06 04:17:31;;;;;;;9.07;3.30;;;;;;;;;;5112441;27;20023;-90
2022/09/06 04:19:57;;;;;;;18.15;4.43;;;;;;;;;;5100375;28;20044;-90
2022/09/06 04:22:25;;;;;;;11.88;3.70;;;;;;;;;;5091194;28;20521;-90
2022/09/06 04:24:52;;;;;;;12.75;4.00;;;;;;;;;;5094856;28;20020;-90
2022/09/06 04:27:20;;;;;;;10.52;3.95;;;;;;;;;;5098839;28;20019;-90
2022/09/06 04:29:46;;;;;;;12.48;4.10;;;;;;;;;;5100705;28;20020;-93
2022/09/06 04:32:15;;;;;;;12.38;4.28;;;;;;;;;;5083388;28;20517;-91
2022/09/06 04:34:41;;;;;;;11.88;4.57;;;;;;;;;;5078336;28;20154;-91
2022/09/06 04:37:07;;;;;;;10.80;4.47;;;;;;;;;;5088648;28;20012;-91
2022/09/06 04:39:33;;;;;;;11.15;5.00;;;;;;;;;;5091842;28;20020;-90
2022/09/06 04:41:59;;;;;;;15.70;4.32;;;;;;;;;;5080889;28;20028;-90
2022/09/06 04:44:26;;;;;;;14.27;4.75;;;;;;;;;;5084805;28;20431;-90
2022/09/06 04:47:04;;;;;;;12.70;4.47;;;;;;;;;;5102862;28;20038;-89
2022/09/06 04:49:38;;;;;;;11.02;4.55;;;;;;;;;;5080407;28;20477;-90
2022/09/06 04:52:04;;;;;;;14.05;5.30;;;;;;;;;;5078466;28;20055;-90
2022/09/06 04:54:30;;;;;;;15.02;4.60;;;;;;;;;;5081404;28;20385;-90
2022/09/06 04:56:57;;;;;;;10.88;5.10;;;;;;;;;;5093870;28;20046;-90
2022/09/06 04:59:23;;;;;;;15.45;5.10;;;;;;;;;;5081302;28;20076;-90
2022/09/06 05:01:49;;;;;;;11.93;5.00;;;;;;;;;;5100711;28;20058;-90
2022/09/06 05:04:15;;;;;;;15.13;5.63;;;;;;;;;;5085666;28;20055;-89
2022/09/06 05:06:42;;;;;;;14.10;5.72;;;;;;;;;;5093546;28;20020;-90
2022/09/06 05:09:08;;;;;;;10.63;5.28;;;;;;;;;;5096435;28;20098;-90
2022/09/06 05:11:34;;;;;;;20.85;6.25;;;;;;;;;;5086437;28;20019;-90
2022/09/06 05:14:00;;;;;;;13.25;5.82;;;;;;;;;;5085965;28;20099;-89
2022/09/06 05:16:27;;;;;;;16.73;6.15;;;;;;;;;;5092437;28;20020;-90
2022/09/06 05:18:53;;;;;;;11.40;5.32;;;;;;;;;;5101304;28;20008;-91
2022/09/06 05:21:21;;;;;;;15.48;5.93;;;;;;;;;;5089515;28;20107;-90
2022/09/06 05:23:48;;;;;;;15.82;6.20;;;;;;;;;;5095555;28;20470;-90
2022/09/06 05:26:14;;;;;;;15.38;6.15;;;;;;;;;;5089718;28;20024;-90
2022/09/06 05:28:42;;;;;;;15.95;6.28;;;;;;;;;;5076377;28;20020;-90
2022/09/06 05:31:10;;;;;;;16.02;6.00;;;;;;;;;;5083814;28;20028;-90
2022/09/06 05:33:36;;;;;;;10.38;5.15;;;;;;;;;;5093610;28;20024;-90
2022/09/06 05:36:03;;;;;;;12.70;5.90;;;;;;;;;;5084589;28;20107;-90
2022/09/06 05:38:32;;;;;;;13.90;6.35;;;;;;;;;;5096227;28;20470;-90
2022/09/06 05:40:58;;;;;;;12.15;6.60;;;;;;;;;;5079654;28;20028;-91
2022/09/06 05:43:25;;;;;;;15.20;6.03;;;;;;;;;;5090957;28;20044;-90
2022/09/06 05:45:51;;;;;;;18.33;7.15;;;;;;;;;;5084044;28;20132;-90
2022/09/06 05:48:18;;;;;;;16.00;6.05;;;;;;;;;;5081160;28;20444;-91
2022/09/06 05:50:44;;;;;;;14.00;5.80;;;;;;;;;;5087529;28;20031;-90
2022/09/06 05:53:18;;;;;;;19.65;7.35;;;;;;;;;;5075749;28;20052;-90
2022/09/06 05:55:44;;;;;;;14.20;6.38;;;;;;;;;;5098170;28;20044;-90
2022/09/06 05:58:11;;;;;;;14.40;6.20;;;;;;;;;;5083114;28;20675;-90
2022/09/06 06:00:37;;;;;;;16.33;5.85;;;;;;;;;;5083749;28;20133;-91
2022/09/06 06:03:04;;;;;;;15.65;5.47;;;;;;;;;;5083342;28;20111;-91
2022/09/06 06:05:30;;;;;;;12.13;5.25;;;;;;;;;;5089115;28;20509;-90
2022/09/06 06:07:57;;;;;;;23.92;6.97;;;;;;;;;;5080552;28;20044;-90
2022/09/06 06:10:26;;;;;;;15.77;5.10;;;;;;;;;;5088219;28;20028;-90
2022/09/06 06:12:52;;;;;;;13.77;5.75;;;;;;;;;;5080207;28;20073;-91
2022/09/06 06:15:18;;;;;;;14.13;6.05;;;;;;;;;;5082200;28;20564;-90
2022/09/06 06:17:44;;;;;;;19.83;6.10;;;;;;;;;;5095083;28;20019;-90
2022/09/06 06:20:11;;;;;;;14.15;6.05;;;;;;;;;;5087711;28;20050;-90
2022/09/06 06:22:37;;;;;;;10.48;5.07;;;;;;;;;;5089555;28;20024;-91
2022/09/06 06:25:06;;;;;;;20.60;5.45;;;;;;;;;;5111830;28;20522;-90
2022/09/06 06:27:34;;;;;;;14.73;6.43;;;;;;;;;;5073857;28;20038;-90
2022/09/06 06:30:07;;;;;;;15.68;6.25;;;;;;;;;;5075292;28;20394;-89
2022/09/06 06:32:33;;;;;;;14.10;5.43;;;;;;;;;;5108838;28;20051;-89
2022/09/06 06:35:02;;;;;;;16.40;5.60;;;;;;;;;;5096312;28;20064;-90
2022/09/06 06:37:28;;;;;;;12.70;5.50;;;;;;;;;;5094468;28;20017;-90
2022/09/06 06:39:54;;;;;;;12.10;5.22;;;;;;;;;;5088295;28;20054;-90
2022/09/06 06:42:20;;;;;;;12.88;4.90;;;;;;;;;;5079228;28;20553;-90
2022/09/06 06:44:47;;;;;;;14.70;5.18;;;;;;;;;;5088032;28;20081;-90
2022/09/06 06:47:13;;;;;;;10.95;5.00;;;;;;;;;;5101900;28;20036;-90
2022/09/06 06:49:42;;;;;;;12.65;5.32;;;;;;;;;;5097905;28;20451;-90
2022/09/06 06:52:08;;;;;;;14.43;5.30;;;;;;;;;;5086509;28;20046;-90
2022/09/06 06:54:36;;;;;;;18.88;5.68;;;;;;;;;;5092068;28;20028;-90
2022/09/06 06:57:03;;;;;;;15.23;5.13;;;;;;;;;;5092916;28;20382;-90
2022/09/06 06:59:29;;;;;;;12.77;5.25;;;;;;;;;;5080312;28;20032;-90
2022/09/06 07:01:55;;;;;;;13.88;4.80;;;;;;;;;;5083769;28;20054;-90
2022/09/06 07:04:21;;;;;;;17.77;5.47;;;;;;;;;;5092294;28;20057;-90
2022/09/06 07:06:57;;;;;;;11.93;4.75;;;;;;;;;;5090014;28;20462;-90
2022/09/06 07:09:23;;;;;;;14.00;5.82;;;;;;;;;;5094221;28;20024;-90
2022/09/06 07:11:49;;;;;;;13.90;5.18;;;;;;;;;;5109506;28;20019;-91
2022/09/06 07:14:16;;;;;;;11.60;5.75;;;;;;;;;;5092588;28;20020;-91
2022/09/06 07:16:43;;;;;;;19.92;6.30;;;;;;;;;;5091424;28;20119;-90
2022/09/06 07:19:09;;;;;;;13.40;5.80;;;;;;;;;;5091945;28;20023;-90
2022/09/06 07:21:35;;;;;;;14.82;5.85;;;;;;;;;;5090817;28;20047;-91
2022/09/06 07:24:02;;;;;;;16.70;5.95;;;;;;;;;;5092961;28;20481;-90
2022/09/06 07:26:29;;;;;;;15.50;6.05;;;;;;;;;;5085505;28;20114;-90
2022/09/06 07:28:56;;;;;;;17.98;5.95;;;;;;;;;;5095430;28;20075;-90
2022/09/06 07:31:25;;;;;;;12.07;4.82;;;;;;;;;;5093774;28;20711;-90
2022/09/06 07:33:54;;;;;;;9.63;4.72;;;;;;;;;;5096321;28;20024;-91
2022/09/06 07:36:22;;;;;;;14.48;5.28;;;;;;;;;;5076358;28;20381;-90
2022/09/06 07:38:50;;;;;;;12.95;5.07;;;;;;;;;;5085406;28;20031;-91
2022/09/06 07:41:17;;;;;;;10.20;5.13;;;;;;;;;;5095714;28;20057;-90
2022/09/06 07:43:43;;;;;;;11.05;5.20;;;;;;;;;;5080715;28;20035;-91
2022/09/06 07:46:11;;;;;;;17.42;6.20;;;;;;;;;;5088583;28;20566;-91
2022/09/06 07:48:39;;;;;;;16.95;5.38;;;;;;;;;;5089546;28;20055;-90
2022/09/06 07:51:07;;;;;;;10.85;5.40;;;;;;;;;;5085991;28;20036;-91
2022/09/06 07:53:33;;;;;;;14.07;4.97;;;;;;;;;;5084534;28;20534;-91
2022/09/06 07:56:08;;;;;;;14.35;5.95;;;;;;;;;;5083469;28;20081;-91
2022/09/06 07:58:34;;;;;;;14.90;5.82;;;;;;;;;;5084808;28;20027;-91
2022/09/06 08:01:16;;;;;;;16.85;5.97;;;;;;;;;;5099427;28;20062;-91
2022/09/06 08:03:42;;;;;;;14.30;5.47;;;;;;;;;;5094019;28;20019;-90
2022/09/06 08:06:08;;;;;;;13.02;5.85;;;;;;;;;;5109926;28;20019;-90
2022/09/06 08:08:34;;;;;;;12.55;5.43;;;;;;;;;;5086323;28;20043;-90
2022/09/06 08:11:01;;;;;;;11.70;5.60;;;;;;;;;;5100128;28;20566;-90
2022/09/06 08:13:27;;;;;;;10.07;5.68;;;;;;;;;;5096210;28;20412;-90
2022/09/06 08:16:00;;;;;;;12.98;5.10;;;;;;;;;;5081325;28;20068;-90
2022/09/06 08:18:26;;;;;;;15.55;6.38;;;;;;;;;;5088347;28;20019;-90
2022/09/06 08:20:52;;;;;;;15.68;5.28;;;;;;;;;;5092782;28;20485;-91
2022/09/06 08:23:18;;;;;;;11.63;5.70;;;;;;;;;;5082908;28;20059;-90
2022/09/06 08:25:44;;;;;;;15.65;5.97;;;;;;;;;;5080226;28;20056;-91
2022/09/06 08:28:11;;;;;;;17.23;5.88;;;;;;;;;;5082552;28;20067;-90
2022/09/06 08:30:37;;;;;;;16.92;5.53;;;;;;;;;;5081056;28;20120;-91
2022/09/06 08:33:03;;;;;;;16.45;6.47;;;;;;;;;;5091542;28;20051;-90
2022/09/06 08:35:29;;;;;;;14.25;5.47;;;;;;;;;;5090609;28;20032;-90
2022/09/06 08:37:57;;;;;;;10.85;5.40;;;;;;;;;;5096181;28;20018;-91
2022/09/06 08:40:24;;;;;;;11.05;5.60;;;;;;;;;;5108289;28;20027;-91
2022/09/06 08:42:51;;;;;;;13.05;6.18;;;;;;;;;;5089273;28;20016;-91
2022/09/06 08:45:23;;;;;;;18.88;6.63;;;;;;;;;;5087692;28;20105;-90
2022/09/06 08:47:51;;;;;;;16.77;6.15;;;;;;;;;;5084146;28;20504;-91
2022/09/06 08:50:18;;;;;;;13.88;5.75;;;;;;;;;;5097009;28;20031;-90
2022/09/06 08:52:59;;;;;;;11.20;5.50;;;;;;;;;;5096491;27;20060;-90
2022/09/06 08:55:43;;;;;;;12.45;5.30;;;;;;;;;;5101286;28;20530;-91
2022/09/06 08:58:17;;;;;;;10.80;6.18;;;;;;;;;;5093963;28;20054;-90
2022/09/06 09:00:52;;;;;;;13.70;5.88;;;;;;;;;;5095188;28;20110;-90
2022/09/06 09:03:24;;;;;;;15.80;6.13;;;;;;;;;;5091395;28;20370;-91
2022/09/06 09:06:04;;;;;;;12.23;5.28;;;;;;;;;;5088928;28;20463;-91
2022/09/06 09:08:36;;;;;;;14.32;6.13;;;;;;;;;;5082056;28;20093;-91
2022/09/06 09:11:06;;;;;;;15.95;5.45;;;;;;;;;;5088167;28;20055;-91
2022/09/06 09:13:34;;;;;;;11.15;5.60;;;;;;;;;;5105060;28;20069;-91
2022/09/06 09:16:00;;;;;;;12.10;5.40;;;;;;;;;;5094995;28;20028;-92
2022/09/06 09:18:29;;;;;;;18.55;6.82;;;;;;;;;;5076925;28;20048;-91
2022/09/06 09:20:55;;;;;;;14.50;5.95;;;;;;;;;;5080668;28;20097;-91
2022/09/06 09:23:21;;;;;;;10.43;5.65;;;;;;;;;;5083539;28;20106;-91
2022/09/06 09:25:49;;;;;;;14.60;5.25;;;;;;;;;;5077156;28;20409;-91
2022/09/06 09:28:17;;;;;;;16.02;5.53;;;;;;;;;;5091062;28;20035;-92
2022/09/06 09:30:48;;;;;;;10.57;5.25;;;;;;;;;;5085687;28;20034;-91
2022/09/06 09:33:14;;;;;;;;;;;;;;;;;;5115185;28;20027;-91
2022/09/06 09:35:41;;;;;;;11.75;5.38;;;;;;;;;;5095759;28;20264;-91
2022/09/06 09:38:16;;;;;;;11.02;5.57;;;;;;;;;;5086174;28;20020;-89
2022/09/06 09:40:51;;;;;;;12.90;5.38;;;;;;;;;;5079403;28;20024;-91
2022/09/06 09:43:17;;;;;;;15.00;5.72;;;;;;;;;;5076904;28;20051;-91
2022/09/06 09:45:44;;;;;;;10.57;4.57;;;;;;;;;;5077397;28;20039;-91
2022/09/06 09:48:23;;;;;;;15.20;5.50;;;;;;;;;;5096332;28;20019;-91
2022/09/06 09:50:50;;;;;;;10.45;5.75;;;;;;;;;;5093355;28;20027;-91
2022/09/06 09:53:18;;;;;;;15.43;5.20;;;;;;;;;;5088926;28;20563;-91
2022/09/06 09:55:44;;;;;;;11.35;5.55;;;;;;;;;;5090027;28;20381;-91
2022/09/06 09:58:24;;;;;;;15.98;5.53;;;;;;;;;;5078030;28;20047;-91
2022/09/06 10:01:08;;;;;;;14.25;5.53;;;;;;;;;;5093280;28;20020;-91
2022/09/06 10:03:34;;;;;;;14.30;4.97;;;;;;;;;;5085873;28;20405;-92
2022/09/06 10:06:01;;;;;;;12.55;5.18;;;;;;;;;;5086102;28;20516;-91
2022/09/06 10:08:30;;;;;;;15.05;5.55;;;;;;;;;;5086002;28;20042;-91
2022/09/06 10:10:56;;;;;;;18.38;6.35;;;;;;;;;;5079120;28;20521;-91
2022/09/06 10:13:25;;;;;;;12.35;5.57;;;;;;;;;;5081801;28;20032;-90
2022/09/06 10:15:54;;;;;;;14.68;5.60;;;;;;;;;;5076106;28;20432;-91
2022/09/06 10:18:22;;;;;;;15.10;6.03;;;;;;;;;;5076041;28;20024;-91
2022/09/06 10:21:08;;;;;;;15.98;5.85;;;;;;;;;;5077495;28;20024;-91
2022/09/06 10:23:38;;;;;;;11.05;5.38;;;;;;;;;;5080788;28;20020;-92
2022/09/06 10:26:04;;;;;;;12.05;5.88;;;;;;;;;;5087521;28;20389;-91
2022/09/06 10:28:35;;;;;;;12.60;5.10;;;;;;;;;;5098281;28;20031;-90
2022/09/06 10:31:05;;;;;;;15.70;6.47;;;;;;;;;;5090707;28;20024;-90
2022/09/06 10:33:34;;;;;;;13.35;5.50;;;;;;;;;;5092177;28;20041;-91
2022/09/06 10:36:02;;;;;;;10.48;5.90;;;;;;;;;;5103058;28;20025;-91
2022/09/06 10:38:34;;;;;;;11.82;5.60;;;;;;;;;;5087172;28;20024;-91
2022/09/06 10:41:10;;;;;;;12.88;5.85;;;;;;;;;;5098385;28;20024;-91
2022/09/06 10:43:43;;;;;;;11.88;5.60;;;;;;;;;;5081420;28;20107;-91
2022/09/06 10:46:17;;;;;;;11.57;5.50;;;;;;;;;;5086762;28;20040;-91
2022/09/06 10:48:47;;;;;;;13.98;5.88;;;;;;;;;;5072907;28;20162;-91
2022/09/06 10:51:13;;;;;;;17.77;6.10;;;;;;;;;;5079038;28;20020;-90
2022/09/06 10:53:57;;;;;;;16.00;6.10;;;;;;;;;;5094614;28;20529;-90
2022/09/06 10:56:29;;;;;;;14.82;5.45;;;;;;;;;;5098098;28;20032;-91
2022/09/06 10:59:14;;;;;;;14.68;5.43;;;;;;;;;;5110493;28;20039;-90
2022/09/06 11:01:43;;;;;;;13.77;5.35;;;;;;;;;;5080674;28;20016;-92
2022/09/06 11:04:12;;;;;;;17.85;6.30;;;;;;;;;;5104276;28;20119;-91
2022/09/06 11:06:48;;;;;;;13.13;5.88;;;;;;;;;;5087214;28;20051;-91
2022/09/06 11:09:19;;;;;;;16.23;5.80;;;;;;;;;;5093290;28;20020;-90
2022/09/06 11:11:49;;;;;;;11.90;6.25;;;;;;;;;;5082019;28;20020;-91
2022/09/06 11:14:16;;;;;;;12.13;5.95;;;;;;;;;;5075459;28;20035;-90
2022/09/06 11:16:50;;;;;;;11.50;6.05;;;;;;;;;;5087264;28;20028;-91
2022/09/06 11:19:29;;;;;;;15.45;6.18;;;;;;;;;;5088147;28;20050;-91
2022/09/06 11:21:59;;;;;;;10.38;6.05;;;;;;;;;;5080554;28;20020;-91
2022/09/06 11:24:31;;;;;;;13.70;5.77;;;;;;;;;;5083599;28;20086;-91
2022/09/06 11:27:07;;;;;;;16.58;5.97;;;;;;;;;;5081921;28;20024;-91
2022/09/06 11:29:39;;;;;;;20.48;6.28;;;;;;;;;;5084673;28;20018;-91
2022/09/06 11:32:22;;;;;;;11.45;5.38;;;;;;;;;;5077484;28;20031;-91
2022/09/06 11:34:56;;;;;;;12.10;5.70;;;;;;;;;;5067392;28;20024;-91
2022/09/06 11:37:27;;;;;;;11.63;5.07;;;;;;;;;;5089527;28;20027;-90
2022/09/06 11:40:05;;;;;;;13.63;5.65;;;;;;;;;;5091782;28;20028;-91
2022/09/06 11:43:01;;;;;;;12.25;6.05;;;;;;;;;;5098146;28;20020;-91
2022/09/06 11:45:44;;;;;;;9.38;4.63;;;;;;;;;;5099188;28;20130;-91
2022/09/06 11:48:23;;;;;;;12.52;4.80;;;;;;;;;;5097048;28;20479;-91
2022/09/06 11:50:58;;;;;;;15.35;5.10;;;;;;;;;;5081858;28;20105;-91
2022/09/06 11:53:35;;;;;;;14.55;5.78;;;;;;;;;;5109082;28;20111;-91
2022/09/06 11:56:02;;;;;;;11.95;4.85;;;;;;;;;;5081985;28;20385;-91
2022/09/06 11:58:43;;;;;;;11.50;5.10;;;;;;;;;;5081288;28;20056;-91
2022/09/06 12:01:12;;;;;;;10.55;4.88;;;;;;;;;;5089180;28;20496;-91
2022/09/06 12:03:48;;;;;;;11.55;5.07;;;;;;;;;;5098877;28;20103;-91
2022/09/06 12:06:19;;;;;;;10.10;5.32;;;;;;;;;;5105899;27;20034;-91
2022/09/06 12:08:46;;;;;;;8.23;5.15;;;;;;;;;;5092938;28;20027;-91
2022/09/06 12:11:25;;;;;;;12.65;5.13;;;;;;;;;;5079570;28;20029;-91
2022/09/06 12:14:01;;;;;;;13.77;5.25;;;;;;;;;;5079557;28;20398;-91
2022/09/06 12:17:03;;;;;;;12.45;5.32;;;;;;;;;;5084754;28;20027;-91
2022/09/06 12:19:31;;;;;;;;;;;;;;;;;;5063211;28;20042;-91
2022/09/06 12:21:58;;;;;;;16.02;5.53;;;;;;;;;;5078440;28;19927;-92
2022/09/06 12:24:33;;;;;;;9.73;5.30;;;;;;;;;;5090718;28;20426;-91
2022/09/06 12:27:18;;;;;;;14.48;5.65;;;;;;;;;;5088800;28;20039;-91
2022/09/06 12:29:53;;;;;;;9.32;5.25;;;;;;;;;;5084521;28;20026;-91
2022/09/06 12:32:25;;;;;;;15.93;6.25;;;;;;;;;;5092925;28;20024;-91
2022/09/06 12:34:52;;;;;;;15.02;5.68;;;;;;;;;;5092136;28;20478;-91
2022/09/06 12:37:32;;;;;;;7.88;4.47;;;;;;;;;;5078322;28;20527;-91
2022/09/06 12:39:58;;;;;;;11.38;4.55;;;;;;;;;;5092483;28;20026;-91
2022/09/06 12:42:25;;;;;;;13.63;5.32;;;;;;;;;;5095770;28;20020;-90
2022/09/06 12:44:53;;;;;;;12.68;5.55;;;;;;;;;;5094146;28;20062;-91
2022/09/06 12:47:25;;;;;;;13.73;5.10;;;;;;;;;;5089721;28;20425;-91
2022/09/06 12:50:09;;;;;;;11.43;4.72;;;;;;;;;;5104272;28;20107;-90
2022/09/06 12:52:43;;;;;;;14.30;4.82;;;;;;;;;;5086293;28;20024;-91
2022/09/06 12:55:14;;;;;;;10.65;4.82;;;;;;;;;;5100910;28;20388;-91
2022/09/06 12:57:47;;;;;;;10.27;5.22;;;;;;;;;;5094219;28;20022;-91
2022/09/06 13:00:13;;;;;;;11.13;5.20;;;;;;;;;;5095256;28;20024;-91
2022/09/06 13:02:44;;;;;;;11.07;5.30;;;;;;;;;;5079458;28;20119;-91
2022/09/06 13:05:15;;;;;;;10.25;5.30;;;;;;;;;;5076781;28;20028;-91
2022/09/06 13:07:46;;;;;;;12.50;5.85;;;;;;;;;;5084331;28;20078;-91
2022/09/06 13:10:17;;;;;;;17.20;6.03;;;;;;;;;;5086580;28;20102;-91
2022/09/06 13:12:44;;;;;;;14.52;5.18;;;;;;;;;;5080287;28;20028;-91
2022/09/06 13:15:18;;;;;;;12.18;4.78;;;;;;;;;;5095174;28;20351;-91
2022/09/06 13:17:45;;;;;;;11.52;5.30;;;;;;;;;;5093487;28;20942;-91
2022/09/06 13:20:21;;;;;;;18.20;5.53;;;;;;;;;;5108568;28;20029;-90
2022/09/06 13:22:49;;;;;;;14.95;5.68;;;;;;;;;;5085271;28;20039;-91
2022/09/06 13:25:24;;;;;;;13.45;4.82;;;;;;;;;;5090510;28;20095;-91
2022/09/06 13:27:56;;;;;;;14.85;5.40;;;;;;;;;;5094940;28;20027;-91
2022/09/06 13:30:44;;;;;;;11.57;5.18;;;;;;;;;;5106065;28;20363;-91
2022/09/06 13:33:24;;;;;;;13.80;5.03;;;;;;;;;;5095827;28;20035;-91
2022/09/06 13:35:54;;;;;;;13.43;5.60;;;;;;;;;;5115402;28;20512;-91
2022/09/06 13:38:22;;;;;;;6.77;4.47;;;;;;;;;;5095811;28;20026;-91
2022/09/06 13:40:51;;;;;;;11.30;5.65;;;;;;;;;;5074414;28;20023;-90
2022/09/06 13:43:21;;;;;;;10.82;5.38;;;;;;;;;;5077050;28;20382;-91
2022/09/06 13:45:47;;;;;;;15.02;5.90;;;;;;;;;;5096719;28;20047;-91
2022/09/06 13:48:14;;;;;;;13.48;5.40;;;;;;;;;;5087858;28;20110;-90
2022/09/06 13:50:41;;;;;;;11.68;4.80;;;;;;;;;;5088103;28;20106;-90
2022/09/06 13:53:07;;;;;;;8.82;4.60;;;;;;;;;;5106755;28;20020;-90
2022/09/06 13:55:34;;;;;;;13.55;4.90;;;;;;;;;;5087026;28;20416;-91
2022/09/06 13:58:00;;;;;;;11.80;4.65;;;;;;;;;;5092839;28;20102;-91
2022/09/06 14:00:26;;;;;;;11.13;4.43;;;;;;;;;;5096347;28;20098;-91
2022/09/06 14:02:54;;;;;;;12.07;4.80;;;;;;;;;;5113430;28;20019;-90
2022/09/06 14:05:20;;;;;;;11.60;4.68;;;;;;;;;;5098675;28;20046;-91
2022/09/06 14:07:47;;;;;;;15.98;4.88;;;;;;;;;;5101260;28;20032;-90
2022/09/06 14:10:13;;;;;;;13.18;4.72;;;;;;;;;;5075830;28;20031;-90
2022/09/06 14:12:40;;;;;;;14.68;5.60;;;;;;;;;;5081432;28;20039;-90
2022/09/06 14:15:06;;;;;;;13.88;5.03;;;;;;;;;;5080412;28;20029;-90
2022/09/06 14:17:32;;;;;;;11.13;5.18;;;;;;;;;;5094036;28;20508;-90
2022/09/06 14:20:01;;;;;;;9.38;4.97;;;;;;;;;;5084255;28;20022;-90
2022/09/06 14:22:27;;;;;;;11.85;5.45;;;;;;;;;;5090988;28;20028;-91
2022/09/06 14:24:54;;;;;;;12.65;5.10;;;;;;;;;;5106970;28;20466;-90
2022/09/06 14:27:21;;;;;;;11.75;5.80;;;;;;;;;;5085513;28;20502;-91
2022/09/06 14:29:48;;;;;;;12.13;5.38;;;;;;;;;;5078480;28;20074;-90
2022/09/06 14:32:14;;;;;;;12.73;5.72;;;;;;;;;;5074539;28;20547;-90
2022/09/06 14:34:40;;;;;;;15.75;6.18;;;;;;;;;;5092416;28;20036;-91
2022/09/06 14:37:06;;;;;;;12.07;5.47;;;;;;;;;;5074040;28;20052;-91
2022/09/06 14:39:33;;;;;;;12.13;5.38;;;;;;;;;;5092073;28;20448;-91
2022/09/06 14:41:59;;;;;;;11.38;5.03;;;;;;;;;;5075941;28;20539;-91
2022/09/06 14:44:25;;;;;;;16.15;5.78;;;;;;;;;;5089317;28;20027;-91
2022/09/06 14:46:53;;;;;;;12.23;5.45;;;;;;;;;;5106770;28;20039;-90